sensor_id;sensor_type;location;lat;lon;timestamp;temperature;humidity
11091;DHT22;5599;52.210;21.046;2022-09-09T00:01:49;13.10;71.20
11091;DHT22;5599;52.210;21.046;2022-09-09T00:04:26;13.20;99.90
11091;DHT22;5599;52.210;21.046;2022-09-09T00:07:01;13.10;59.50
11091;DHT22;5599;52.210;21.046;2022-09-09T00:09:40;13.00;99.90
11091;DHT22;5599;52.210;21.046;2022-09-09T00:12:15;12.90;99.90
11091;DHT22;5599;52.210;21.046;2022-09-09T00:14:50;12.80;99.90
11091;DHT22;5599;52.210;21.046;2022-09-09T00:17:30;12.70;99.90
11091;DHT22;5599;52.210;21.046;2022-09-09T00:20:09;12.60;99.90
11091;DHT22;5599;52.210;21.046;2022-09-09T00:22:45;12.50;99.90
11091;DHT22;5599;52.210;21.046;2022-09-09T00:25:26;12.60;99.90
11091;DHT22;5599;52.210;21.046;2022-09-09T00:27:57;12.60;99.90
11091;DHT22;5599;52.210;21.046;2022-09-09T00:30:31;12.40;99.90
11091;DHT22;5599;52.210;21.046;2022-09-09T00:33:08;12.40;99.90
11091;DHT22;5599;52.210;21.046;2022-09-09T00:35:44;12.50;99.90
11091;DHT22;5599;52.210;21.046;2022-09-09T00:38:18;12.50;99.90
11091;DHT22;5599;52.210;21.046;2022-09-09T00:40:52;12.50;99.90
11091;DHT22;5599;52.210;21.046;2022-09-09T00:43:27;12.50;99.90
11091;DHT22;5599;52.210;21.046;2022-09-09T00:49:05;12.70;99.90
11091;DHT22;5599;52.210;21.046;2022-09-09T00:51:46;12.70;99.90
11091;DHT22;5599;52.210;21.046;2022-09-09T00:54:33;12.70;99.90
11091;DHT22;5599;52.210;21.046;2022-09-09T00:57:14;12.70;99.90
11091;DHT22;5599;52.210;21.046;2022-09-09T00:59:48;12.60;99.90
11091;DHT22;5599;52.210;21.046;2022-09-09T01:02:26;12.70;99.90
11091;DHT22;5599;52.210;21.046;2022-09-09T01:05:05;12.70;99.90
11091;DHT22;5599;52.210;21.046;2022-09-09T01:07:36;12.60;99.90
11091;DHT22;5599;52.210;21.046;2022-09-09T01:10:11;12.50;99.90
11091;DHT22;5599;52.210;21.046;2022-09-09T01:12:47;12.50;99.90
11091;DHT22;5599;52.210;21.046;2022-09-09T01:15:24;12.60;99.90
11091;DHT22;5599;52.210;21.046;2022-09-09T01:18:00;12.50;99.90
11091;DHT22;5599;52.210;21.046;2022-09-09T01:20:43;12.40;99.90
11091;DHT22;5599;52.210;21.046;2022-09-09T01:23:27;12.40;99.90
11091;DHT22;5599;52.210;21.046;2022-09-09T01:26:23;12.40;99.90
11091;DHT22;5599;52.210;21.046;2022-09-09T01:28:56;12.30;99.90
11091;DHT22;5599;52.210;21.046;2022-09-09T01:31:37;12.30;99.90
11091;DHT22;5599;52.210;21.046;2022-09-09T01:34:11;12.40;99.90
11091;DHT22;5599;52.210;21.046;2022-09-09T01:36:45;12.40;99.90
11091;DHT22;5599;52.210;21.046;2022-09-09T01:39:19;12.40;99.90
11091;DHT22;5599;52.210;21.046;2022-09-09T01:41:59;12.40;99.90
11091;DHT22;5599;52.210;21.046;2022-09-09T01:44:30;12.40;99.90
11091;DHT22;5599;52.210;21.046;2022-09-09T01:47:02;12.40;99.90
11091;DHT22;5599;52.210;21.046;2022-09-09T01:49:32;12.40;99.90
11091;DHT22;5599;52.210;21.046;2022-09-09T01:52:09;12.40;99.90
11091;DHT22;5599;52.210;21.046;2022-09-09T01:54:39;12.40;99.90
11091;DHT22;5599;52.210;21.046;2022-09-09T01:57:20;12.30;99.90
11091;DHT22;5599;52.210;21.046;2022-09-09T02:00:02;12.40;99.90
11091;DHT22;5599;52.210;21.046;2022-09-09T02:02:48;12.40;99.90
11091;DHT22;5599;52.210;21.046;2022-09-09T02:05:31;12.40;99.90
11091;DHT22;5599;52.210;21.046;2022-09-09T02:08:08;12.40;99.90
11091;DHT22;5599;52.210;21.046;2022-09-09T02:10:55;12.40;99.90
11091;DHT22;5599;52.210;21.046;2022-09-09T02:13:37;12.50;99.90
11091;DHT22;5599;52.210;21.046;2022-09-09T02:16:15;12.50;99.90
11091;DHT22;5599;52.210;21.046;2022-09-09T02:18:50;12.50;99.90
11091;DHT22;5599;52.210;21.046;2022-09-09T02:21:28;12.40;99.90
11091;DHT22;5599;52.210;21.046;2022-09-09T02:24:00;12.50;99.90
11091;DHT22;5599;52.210;21.046;2022-09-09T02:26:40;12.50;99.90
11091;DHT22;5599;52.210;21.046;2022-09-09T02:29:17;12.60;99.90
11091;DHT22;5599;52.210;21.046;2022-09-09T02:31:49;12.50;99.90
11091;DHT22;5599;52.210;21.046;2022-09-09T02:34:29;12.40;99.90
11091;DHT22;5599;52.210;21.046;2022-09-09T02:37:01;12.40;99.90
11091;DHT22;5599;52.210;21.046;2022-09-09T02:39:31;12.30;99.90
11091;DHT22;5599;52.210;21.046;2022-09-09T02:42:03;12.40;99.90
11091;DHT22;5599;52.210;21.046;2022-09-09T02:44:35;12.40;99.90
11091;DHT22;5599;52.210;21.046;2022-09-09T02:47:25;12.30;99.90
11091;DHT22;5599;52.210;21.046;2022-09-09T02:50:05;12.40;99.90
11091;DHT22;5599;52.210;21.046;2022-09-09T02:52:46;12.40;99.90
11091;DHT22;5599;52.210;21.046;2022-09-09T02:55:20;12.40;99.90
11091;DHT22;5599;52.210;21.046;2022-09-09T02:57:55;12.50;99.90
11091;DHT22;5599;52.210;21.046;2022-09-09T03:00:29;12.60;99.90
11091;DHT22;5599;52.210;21.046;2022-09-09T03:03:01;12.50;99.90
11091;DHT22;5599;52.210;21.046;2022-09-09T03:05:32;12.50;99.90
11091;DHT22;5599;52.210;21.046;2022-09-09T03:08:02;12.60;99.90
11091;DHT22;5599;52.210;21.046;2022-09-09T03:10:31;12.60;99.90
11091;DHT22;5599;52.210;21.046;2022-09-09T03:13:01;12.60;99.90
11091;DHT22;5599;52.210;21.046;2022-09-09T03:15:37;12.50;99.90
11091;DHT22;5599;52.210;21.046;2022-09-09T03:18:09;12.60;99.90
11091;DHT22;5599;52.210;21.046;2022-09-09T03:20:38;12.60;99.90
11091;DHT22;5599;52.210;21.046;2022-09-09T03:23:10;12.60;99.90
11091;DHT22;5599;52.210;21.046;2022-09-09T03:25:47;12.60;99.90
11091;DHT22;5599;52.210;21.046;2022-09-09T03:28:20;12.60;99.90
11091;DHT22;5599;52.210;21.046;2022-09-09T03:30:52;12.60;99.90
11091;DHT22;5599;52.210;21.046;2022-09-09T03:33:27;12.50;99.90
11091;DHT22;5599;52.210;21.046;2022-09-09T03:35:58;12.50;99.90
11091;DHT22;5599;52.210;21.046;2022-09-09T03:38:29;12.50;99.90
11091;DHT22;5599;52.210;21.046;2022-09-09T03:41:01;12.50;99.90
11091;DHT22;5599;52.210;21.046;2022-09-09T03:43:31;12.40;99.90
11091;DHT22;5599;52.210;21.046;2022-09-09T03:46:03;12.50;99.90
11091;DHT22;5599;52.210;21.046;2022-09-09T03:48:32;12.50;99.90
11091;DHT22;5599;52.210;21.046;2022-09-09T03:51:04;12.60;99.90
11091;DHT22;5599;52.210;21.046;2022-09-09T03:53:34;12.60;99.90
11091;DHT22;5599;52.210;21.046;2022-09-09T03:56:07;12.60;99.90
11091;DHT22;5599;52.210;21.046;2022-09-09T03:58:38;12.60;99.90
11091;DHT22;5599;52.210;21.046;2022-09-09T04:01:12;12.60;99.90
11091;DHT22;5599;52.210;21.046;2022-09-09T04:03:44;12.70;99.90
11091;DHT22;5599;52.210;21.046;2022-09-09T04:06:14;12.70;99.90
11091;DHT22;5599;52.210;21.046;2022-09-09T04:08:47;12.70;99.90
11091;DHT22;5599;52.210;21.046;2022-09-09T04:11:19;12.80;99.90
11091;DHT22;5599;52.210;21.046;2022-09-09T04:13:52;12.70;99.90
11091;DHT22;5599;52.210;21.046;2022-09-09T04:16:23;12.70;99.90
11091;DHT22;5599;52.210;21.046;2022-09-09T04:18:53;12.80;99.90
11091;DHT22;5599;52.210;21.046;2022-09-09T04:21:24;12.80;99.90
11091;DHT22;5599;52.210;21.046;2022-09-09T04:23:54;12.80;99.90
11091;DHT22;5599;52.210;21.046;2022-09-09T04:26:25;12.80;99.90
11091;DHT22;5599;52.210;21.046;2022-09-09T04:28:54;12.80;99.90
11091;DHT22;5599;52.210;21.046;2022-09-09T04:31:26;12.80;99.90
11091;DHT22;5599;52.210;21.046;2022-09-09T04:33:56;12.80;99.90
11091;DHT22;5599;52.210;21.046;2022-09-09T04:36:26;12.90;99.90
11091;DHT22;5599;52.210;21.046;2022-09-09T04:39:00;12.90;99.90
11091;DHT22;5599;52.210;21.046;2022-09-09T04:41:30;12.90;99.90
11091;DHT22;5599;52.210;21.046;2022-09-09T04:44:00;13.00;99.90
11091;DHT22;5599;52.210;21.046;2022-09-09T04:46:33;13.00;99.90
11091;DHT22;5599;52.210;21.046;2022-09-09T04:49:04;13.00;99.90
11091;DHT22;5599;52.210;21.046;2022-09-09T04:51:36;13.00;99.90
11091;DHT22;5599;52.210;21.046;2022-09-09T04:54:07;13.00;99.90
11091;DHT22;5599;52.210;21.046;2022-09-09T04:56:39;13.10;99.90
11091;DHT22;5599;52.210;21.046;2022-09-09T04:59:10;13.10;99.90
11091;DHT22;5599;52.210;21.046;2022-09-09T05:01:46;13.10;99.90
11091;DHT22;5599;52.210;21.046;2022-09-09T05:04:16;13.00;99.90
11091;DHT22;5599;52.210;21.046;2022-09-09T05:06:47;13.00;99.90
11091;DHT22;5599;52.210;21.046;2022-09-09T05:09:17;13.10;99.90
11091;DHT22;5599;52.210;21.046;2022-09-09T05:11:47;13.10;99.90
11091;DHT22;5599;52.210;21.046;2022-09-09T05:14:30;13.10;99.90
11091;DHT22;5599;52.210;21.046;2022-09-09T05:17:02;13.10;99.90
11091;DHT22;5599;52.210;21.046;2022-09-09T05:19:33;13.10;99.90
11091;DHT22;5599;52.210;21.046;2022-09-09T05:22:03;13.10;99.90
11091;DHT22;5599;52.210;21.046;2022-09-09T05:24:41;13.20;99.90
11091;DHT22;5599;52.210;21.046;2022-09-09T05:27:12;13.20;99.90
11091;DHT22;5599;52.210;21.046;2022-09-09T05:29:43;13.20;99.90
11091;DHT22;5599;52.210;21.046;2022-09-09T05:32:15;13.30;99.90
11091;DHT22;5599;52.210;21.046;2022-09-09T05:34:48;13.30;99.90
11091;DHT22;5599;52.210;21.046;2022-09-09T05:37:18;13.10;99.90
11091;DHT22;5599;52.210;21.046;2022-09-09T05:39:48;13.00;99.90
11091;DHT22;5599;52.210;21.046;2022-09-09T05:42:18;13.00;99.90
11091;DHT22;5599;52.210;21.046;2022-09-09T05:44:48;13.00;99.90
11091;DHT22;5599;52.210;21.046;2022-09-09T05:47:20;13.10;99.90
11091;DHT22;5599;52.210;21.046;2022-09-09T05:49:50;13.10;99.90
11091;DHT22;5599;52.210;21.046;2022-09-09T05:52:19;13.20;99.90
11091;DHT22;5599;52.210;21.046;2022-09-09T05:54:49;13.20;99.90
11091;DHT22;5599;52.210;21.046;2022-09-09T05:57:19;13.20;99.90
11091;DHT22;5599;52.210;21.046;2022-09-09T05:59:50;13.30;99.90
11091;DHT22;5599;52.210;21.046;2022-09-09T06:02:21;13.30;99.90
11091;DHT22;5599;52.210;21.046;2022-09-09T06:04:51;13.30;99.90
11091;DHT22;5599;52.210;21.046;2022-09-09T06:07:27;13.40;99.90
11091;DHT22;5599;52.210;21.046;2022-09-09T06:09:56;13.40;99.90
11091;DHT22;5599;52.210;21.046;2022-09-09T06:12:27;13.30;99.90
11091;DHT22;5599;52.210;21.046;2022-09-09T06:14:56;13.30;99.90
11091;DHT22;5599;52.210;21.046;2022-09-09T06:17:27;13.40;99.90
11091;DHT22;5599;52.210;21.046;2022-09-09T06:19:58;13.50;99.90
11091;DHT22;5599;52.210;21.046;2022-09-09T06:22:28;13.50;99.90
11091;DHT22;5599;52.210;21.046;2022-09-09T06:24:58;13.60;99.90
11091;DHT22;5599;52.210;21.046;2022-09-09T06:27:29;13.60;99.90
11091;DHT22;5599;52.210;21.046;2022-09-09T06:29:59;13.60;99.90
11091;DHT22;5599;52.210;21.046;2022-09-09T06:32:32;13.60;99.90
11091;DHT22;5599;52.210;21.046;2022-09-09T06:35:04;13.60;99.90
11091;DHT22;5599;52.210;21.046;2022-09-09T06:37:35;13.60;99.90
11091;DHT22;5599;52.210;21.046;2022-09-09T06:40:06;13.60;99.90
11091;DHT22;5599;52.210;21.046;2022-09-09T06:42:36;13.50;99.90
11091;DHT22;5599;52.210;21.046;2022-09-09T06:45:22;13.60;99.90
11091;DHT22;5599;52.210;21.046;2022-09-09T06:47:57;13.60;99.90
11091;DHT22;5599;52.210;21.046;2022-09-09T06:50:27;13.60;99.90
11091;DHT22;5599;52.210;21.046;2022-09-09T06:52:57;13.70;99.90
11091;DHT22;5599;52.210;21.046;2022-09-09T06:55:26;13.70;99.90
11091;DHT22;5599;52.210;21.046;2022-09-09T06:57:56;13.70;99.90
11091;DHT22;5599;52.210;21.046;2022-09-09T07:00:26;13.70;99.90
11091;DHT22;5599;52.210;21.046;2022-09-09T07:02:58;13.70;99.90
11091;DHT22;5599;52.210;21.046;2022-09-09T07:05:29;13.60;99.90
11091;DHT22;5599;52.210;21.046;2022-09-09T07:07:59;13.70;99.90
11091;DHT22;5599;52.210;21.046;2022-09-09T07:10:29;13.70;99.90
11091;DHT22;5599;52.210;21.046;2022-09-09T07:13:01;13.80;99.90
11091;DHT22;5599;52.210;21.046;2022-09-09T07:15:31;13.50;99.90
11091;DHT22;5599;52.210;21.046;2022-09-09T07:18:03;13.60;99.90
11091;DHT22;5599;52.210;21.046;2022-09-09T07:20:33;13.70;99.90
11091;DHT22;5599;52.210;21.046;2022-09-09T07:23:03;13.70;99.90
11091;DHT22;5599;52.210;21.046;2022-09-09T07:25:33;13.70;99.90
11091;DHT22;5599;52.210;21.046;2022-09-09T07:28:02;13.80;99.90
11091;DHT22;5599;52.210;21.046;2022-09-09T07:30:33;13.90;99.90
11091;DHT22;5599;52.210;21.046;2022-09-09T07:33:04;13.80;99.90
11091;DHT22;5599;52.210;21.046;2022-09-09T07:35:34;13.70;99.90
11091;DHT22;5599;52.210;21.046;2022-09-09T07:38:04;13.80;99.90
11091;DHT22;5599;52.210;21.046;2022-09-09T07:40:35;13.70;99.90
11091;DHT22;5599;52.210;21.046;2022-09-09T07:43:05;13.90;99.90
11091;DHT22;5599;52.210;21.046;2022-09-09T07:45:34;13.90;99.90
11091;DHT22;5599;52.210;21.046;2022-09-09T07:48:06;13.90;99.90
11091;DHT22;5599;52.210;21.046;2022-09-09T07:50:36;14.00;99.90
11091;DHT22;5599;52.210;21.046;2022-09-09T07:53:08;14.00;99.90
11091;DHT22;5599;52.210;21.046;2022-09-09T07:55:39;13.80;99.90
11091;DHT22;5599;52.210;21.046;2022-09-09T07:58:09;13.90;99.90
11091;DHT22;5599;52.210;21.046;2022-09-09T08:00:39;13.90;99.90
11091;DHT22;5599;52.210;21.046;2022-09-09T08:03:13;13.80;99.90
11091;DHT22;5599;52.210;21.046;2022-09-09T08:05:43;13.90;99.90
11091;DHT22;5599;52.210;21.046;2022-09-09T08:08:13;14.00;99.90
11091;DHT22;5599;52.210;21.046;2022-09-09T08:10:43;14.00;99.90
11091;DHT22;5599;52.210;21.046;2022-09-09T08:13:12;14.00;99.90
11091;DHT22;5599;52.210;21.046;2022-09-09T08:15:47;14.20;99.90
11091;DHT22;5599;52.210;21.046;2022-09-09T08:18:21;14.10;99.90
11091;DHT22;5599;52.210;21.046;2022-09-09T08:20:52;14.30;99.90
11091;DHT22;5599;52.210;21.046;2022-09-09T08:23:21;13.90;99.90
11091;DHT22;5599;52.210;21.046;2022-09-09T08:25:51;14.10;99.90
11091;DHT22;5599;52.210;21.046;2022-09-09T08:28:21;14.10;99.90
11091;DHT22;5599;52.210;21.046;2022-09-09T08:30:51;14.10;99.90
11091;DHT22;5599;52.210;21.046;2022-09-09T08:33:22;14.30;99.90
11091;DHT22;5599;52.210;21.046;2022-09-09T08:35:52;14.30;99.90
11091;DHT22;5599;52.210;21.046;2022-09-09T08:38:23;14.20;99.90
11091;DHT22;5599;52.210;21.046;2022-09-09T08:40:54;14.30;99.90
11091;DHT22;5599;52.210;21.046;2022-09-09T08:43:30;14.50;99.90
11091;DHT22;5599;52.210;21.046;2022-09-09T08:46:06;14.60;99.90
11091;DHT22;5599;52.210;21.046;2022-09-09T08:48:48;14.70;99.90
11091;DHT22;5599;52.210;21.046;2022-09-09T08:51:21;14.70;99.90
11091;DHT22;5599;52.210;21.046;2022-09-09T08:53:54;14.80;99.90
11091;DHT22;5599;52.210;21.046;2022-09-09T08:56:28;14.70;99.90
11091;DHT22;5599;52.210;21.046;2022-09-09T08:59:01;14.70;99.90
11091;DHT22;5599;52.210;21.046;2022-09-09T09:01:49;14.70;99.90
11091;DHT22;5599;52.210;21.046;2022-09-09T09:04:40;14.90;99.90
11091;DHT22;5599;52.210;21.046;2022-09-09T09:07:25;14.90;99.90
11091;DHT22;5599;52.210;21.046;2022-09-09T09:10:08;14.70;99.90
11091;DHT22;5599;52.210;21.046;2022-09-09T09:13:01;14.80;99.90
11091;DHT22;5599;52.210;21.046;2022-09-09T09:15:37;14.80;99.90
11091;DHT22;5599;52.210;21.046;2022-09-09T09:18:11;14.90;99.90
11091;DHT22;5599;52.210;21.046;2022-09-09T09:20:50;14.90;99.90
11091;DHT22;5599;52.210;21.046;2022-09-09T09:23:24;15.00;99.90
11091;DHT22;5599;52.210;21.046;2022-09-09T09:26:00;15.10;99.90
11091;DHT22;5599;52.210;21.046;2022-09-09T09:28:31;15.00;99.90
11091;DHT22;5599;52.210;21.046;2022-09-09T09:31:10;15.00;99.90
11091;DHT22;5599;52.210;21.046;2022-09-09T09:33:48;15.00;99.90
11091;DHT22;5599;52.210;21.046;2022-09-09T09:36:24;14.90;99.90
11091;DHT22;5599;52.210;21.046;2022-09-09T09:39:03;15.00;99.90
11091;DHT22;5599;52.210;21.046;2022-09-09T09:41:56;14.90;99.90
11091;DHT22;5599;52.210;21.046;2022-09-09T09:44:33;15.10;99.90
11091;DHT22;5599;52.210;21.046;2022-09-09T09:47:14;15.10;99.90
11091;DHT22;5599;52.210;21.046;2022-09-09T09:49:55;15.00;99.90
11091;DHT22;5599;52.210;21.046;2022-09-09T09:52:31;14.80;99.90
11091;DHT22;5599;52.210;21.046;2022-09-09T09:55:05;14.80;99.90
11091;DHT22;5599;52.210;21.046;2022-09-09T09:57:44;14.70;99.90
11091;DHT22;5599;52.210;21.046;2022-09-09T10:00:15;14.80;99.90
11091;DHT22;5599;52.210;21.046;2022-09-09T10:02:53;14.90;99.90
11091;DHT22;5599;52.210;21.046;2022-09-09T10:05:29;15.00;99.90
11091;DHT22;5599;52.210;21.046;2022-09-09T10:08:14;15.10;99.90
11091;DHT22;5599;52.210;21.046;2022-09-09T10:11:05;15.20;99.90
11091;DHT22;5599;52.210;21.046;2022-09-09T10:13:46;15.40;99.90
11091;DHT22;5599;52.210;21.046;2022-09-09T10:16:26;15.50;99.90
11091;DHT22;5599;52.210;21.046;2022-09-09T10:19:02;15.60;99.90
11091;DHT22;5599;52.210;21.046;2022-09-09T10:22:04;15.40;99.90
11091;DHT22;5599;52.210;21.046;2022-09-09T10:27:49;15.50;99.90
11091;DHT22;5599;52.210;21.046;2022-09-09T10:30:33;15.60;99.90
11091;DHT22;5599;52.210;21.046;2022-09-09T10:33:08;15.50;99.90
11091;DHT22;5599;52.210;21.046;2022-09-09T10:35:45;15.50;99.90
11091;DHT22;5599;52.210;21.046;2022-09-09T10:38:25;15.40;99.90
11091;DHT22;5599;52.210;21.046;2022-09-09T10:41:14;15.40;99.90
11091;DHT22;5599;52.210;21.046;2022-09-09T10:44:03;15.60;99.90
11091;DHT22;5599;52.210;21.046;2022-09-09T10:46:44;15.60;99.90
11091;DHT22;5599;52.210;21.046;2022-09-09T10:49:29;15.60;99.90
11091;DHT22;5599;52.210;21.046;2022-09-09T10:52:07;15.60;99.90
11091;DHT22;5599;52.210;21.046;2022-09-09T10:54:48;15.50;99.90
11091;DHT22;5599;52.210;21.046;2022-09-09T10:57:29;15.50;99.90
11091;DHT22;5599;52.210;21.046;2022-09-09T11:00:03;15.60;99.90
11091;DHT22;5599;52.210;21.046;2022-09-09T11:02:34;15.70;99.90
11091;DHT22;5599;52.210;21.046;2022-09-09T11:05:08;15.70;99.90
11091;DHT22;5599;52.210;21.046;2022-09-09T11:07:41;15.70;99.90
11091;DHT22;5599;52.210;21.046;2022-09-09T11:10:20;15.70;99.90
11091;DHT22;5599;52.210;21.046;2022-09-09T11:12:59;15.70;99.90
11091;DHT22;5599;52.210;21.046;2022-09-09T11:15:36;15.70;99.90
11091;DHT22;5599;52.210;21.046;2022-09-09T11:18:13;15.30;99.90
11091;DHT22;5599;52.210;21.046;2022-09-09T11:20:48;15.40;99.90
11091;DHT22;5599;52.210;21.046;2022-09-09T11:23:23;15.40;99.90
11091;DHT22;5599;52.210;21.046;2022-09-09T11:25:57;15.40;99.90
11091;DHT22;5599;52.210;21.046;2022-09-09T11:28:42;15.60;99.90
11091;DHT22;5599;52.210;21.046;2022-09-09T11:31:38;15.60;99.90
11091;DHT22;5599;52.210;21.046;2022-09-09T11:34:23;15.50;99.90
11091;DHT22;5599;52.210;21.046;2022-09-09T11:37:25;15.60;99.90
11091;DHT22;5599;52.210;21.046;2022-09-09T11:40:15;15.80;99.90
11091;DHT22;5599;52.210;21.046;2022-09-09T11:42:47;15.80;99.90
11091;DHT22;5599;52.210;21.046;2022-09-09T11:45:24;15.90;99.90
11091;DHT22;5599;52.210;21.046;2022-09-09T11:47:57;16.00;99.90
11091;DHT22;5599;52.210;21.046;2022-09-09T11:50:31;16.00;99.90
11091;DHT22;5599;52.210;21.046;2022-09-09T11:53:19;15.90;99.90
11091;DHT22;5599;52.210;21.046;2022-09-09T11:56:03;15.90;99.90
11091;DHT22;5599;52.210;21.046;2022-09-09T12:01:37;15.50;99.90
11091;DHT22;5599;52.210;21.046;2022-09-09T12:04:17;15.60;99.90
11091;DHT22;5599;52.210;21.046;2022-09-09T12:06:52;15.70;99.90
11091;DHT22;5599;52.210;21.046;2022-09-09T12:09:27;15.70;99.90
11091;DHT22;5599;52.210;21.046;2022-09-09T12:12:07;15.70;99.90
11091;DHT22;5599;52.210;21.046;2022-09-09T12:14:58;15.60;99.90
11091;DHT22;5599;52.210;21.046;2022-09-09T12:17:36;15.70;99.90
11091;DHT22;5599;52.210;21.046;2022-09-09T12:20:13;15.60;99.90
11091;DHT22;5599;52.210;21.046;2022-09-09T12:23:15;15.60;99.90
11091;DHT22;5599;52.210;21.046;2022-09-09T12:25:58;15.50;99.90
11091;DHT22;5599;52.210;21.046;2022-09-09T12:28:41;15.40;99.90
11091;DHT22;5599;52.210;21.046;2022-09-09T12:31:17;15.40;99.90
11091;DHT22;5599;52.210;21.046;2022-09-09T12:33:52;15.50;99.90
11091;DHT22;5599;52.210;21.046;2022-09-09T12:36:27;15.40;99.90
11091;DHT22;5599;52.210;21.046;2022-09-09T12:39:08;15.50;99.90
11091;DHT22;5599;52.210;21.046;2022-09-09T12:41:39;15.60;99.90
11091;DHT22;5599;52.210;21.046;2022-09-09T12:44:10;15.70;99.90
11091;DHT22;5599;52.210;21.046;2022-09-09T12:46:41;15.70;99.90
11091;DHT22;5599;52.210;21.046;2022-09-09T12:49:29;15.70;99.90
11091;DHT22;5599;52.210;21.046;2022-09-09T12:52:03;15.60;99.90
11091;DHT22;5599;52.210;21.046;2022-09-09T12:54:35;15.70;99.90
11091;DHT22;5599;52.210;21.046;2022-09-09T12:57:14;15.70;99.90
11091;DHT22;5599;52.210;21.046;2022-09-09T13:00:14;15.80;99.90
11091;DHT22;5599;52.210;21.046;2022-09-09T13:02:51;15.80;99.90
11091;DHT22;5599;52.210;21.046;2022-09-09T13:05:23;15.80;99.90
11091;DHT22;5599;52.210;21.046;2022-09-09T13:08:01;15.80;99.90
11091;DHT22;5599;52.210;21.046;2022-09-09T13:10:35;15.90;99.90
11091;DHT22;5599;52.210;21.046;2022-09-09T13:13:22;15.80;99.90
11091;DHT22;5599;52.210;21.046;2022-09-09T13:15:55;15.50;99.90
11091;DHT22;5599;52.210;21.046;2022-09-09T13:18:28;15.60;99.90
11091;DHT22;5599;52.210;21.046;2022-09-09T13:21:00;15.70;99.90
11091;DHT22;5599;52.210;21.046;2022-09-09T13:23:32;15.70;99.90
11091;DHT22;5599;52.210;21.046;2022-09-09T13:26:05;15.80;99.90
11091;DHT22;5599;52.210;21.046;2022-09-09T13:28:35;15.90;99.90
11091;DHT22;5599;52.210;21.046;2022-09-09T13:31:22;16.00;99.90
11091;DHT22;5599;52.210;21.046;2022-09-09T13:33:52;15.90;99.90
11091;DHT22;5599;52.210;21.046;2022-09-09T13:36:30;15.80;99.90
11091;DHT22;5599;52.210;21.046;2022-09-09T13:39:02;15.80;99.90
11091;DHT22;5599;52.210;21.046;2022-09-09T13:41:34;15.80;99.90
11091;DHT22;5599;52.210;21.046;2022-09-09T13:44:05;15.80;99.90
11091;DHT22;5599;52.210;21.046;2022-09-09T13:46:36;15.90;99.90
11091;DHT22;5599;52.210;21.046;2022-09-09T13:49:20;15.90;99.90
11091;DHT22;5599;52.210;21.046;2022-09-09T13:52:04;15.90;99.90
11091;DHT22;5599;52.210;21.046;2022-09-09T13:54:35;15.70;99.90
11091;DHT22;5599;52.210;21.046;2022-09-09T13:57:05;15.60;99.90
11091;DHT22;5599;52.210;21.046;2022-09-09T13:59:35;15.70;99.90
11091;DHT22;5599;52.210;21.046;2022-09-09T14:02:25;15.50;99.90
11091;DHT22;5599;52.210;21.046;2022-09-09T14:04:55;15.60;99.90
11091;DHT22;5599;52.210;21.046;2022-09-09T14:07:27;15.50;99.90
11091;DHT22;5599;52.210;21.046;2022-09-09T14:09:56;15.60;99.90
11091;DHT22;5599;52.210;21.046;2022-09-09T14:12:28;15.50;99.90
11091;DHT22;5599;52.210;21.046;2022-09-09T14:14:57;15.30;99.90
11091;DHT22;5599;52.210;21.046;2022-09-09T14:17:27;15.30;99.90
11091;DHT22;5599;52.210;21.046;2022-09-09T14:19:59;15.30;99.90
11091;DHT22;5599;52.210;21.046;2022-09-09T14:22:30;15.40;99.90
11091;DHT22;5599;52.210;21.046;2022-09-09T14:24:59;15.30;99.90
11091;DHT22;5599;52.210;21.046;2022-09-09T14:27:29;15.20;99.90
11091;DHT22;5599;52.210;21.046;2022-09-09T14:29:59;15.10;99.90
11091;DHT22;5599;52.210;21.046;2022-09-09T14:32:29;15.10;99.90
11091;DHT22;5599;52.210;21.046;2022-09-09T14:34:59;15.20;99.90
11091;DHT22;5599;52.210;21.046;2022-09-09T14:37:31;15.30;99.90
11091;DHT22;5599;52.210;21.046;2022-09-09T14:40:01;15.50;99.90
11091;DHT22;5599;52.210;21.046;2022-09-09T14:42:31;15.50;99.90
11091;DHT22;5599;52.210;21.046;2022-09-09T14:45:01;15.40;99.90
11091;DHT22;5599;52.210;21.046;2022-09-09T14:47:30;15.50;99.90
11091;DHT22;5599;52.210;21.046;2022-09-09T14:50:00;15.60;99.90
11091;DHT22;5599;52.210;21.046;2022-09-09T14:52:34;15.50;99.90
11091;DHT22;5599;52.210;21.046;2022-09-09T14:55:04;15.60;99.90
11091;DHT22;5599;52.210;21.046;2022-09-09T14:57:34;15.70;99.90
11091;DHT22;5599;52.210;21.046;2022-09-09T15:00:05;15.70;99.90
11091;DHT22;5599;52.210;21.046;2022-09-09T15:02:35;15.70;99.90
11091;DHT22;5599;52.210;21.046;2022-09-09T15:05:06;15.60;99.90
11091;DHT22;5599;52.210;21.046;2022-09-09T15:07:38;15.60;99.90
11091;DHT22;5599;52.210;21.046;2022-09-09T15:10:08;15.60;99.90
11091;DHT22;5599;52.210;21.046;2022-09-09T15:12:39;15.60;99.90
11091;DHT22;5599;52.210;21.046;2022-09-09T15:15:10;15.50;99.90
11091;DHT22;5599;52.210;21.046;2022-09-09T15:17:40;15.50;99.90
11091;DHT22;5599;52.210;21.046;2022-09-09T15:20:10;15.50;99.90
11091;DHT22;5599;52.210;21.046;2022-09-09T15:22:42;15.60;99.90
11091;DHT22;5599;52.210;21.046;2022-09-09T15:25:13;15.70;99.90
11091;DHT22;5599;52.210;21.046;2022-09-09T15:27:43;15.90;99.90
11091;DHT22;5599;52.210;21.046;2022-09-09T15:30:13;15.90;99.90
11091;DHT22;5599;52.210;21.046;2022-09-09T15:32:43;16.00;99.90
11091;DHT22;5599;52.210;21.046;2022-09-09T15:35:13;16.00;99.90
11091;DHT22;5599;52.210;21.046;2022-09-09T15:37:44;15.90;99.90
11091;DHT22;5599;52.210;21.046;2022-09-09T15:40:14;15.90;99.90
11091;DHT22;5599;52.210;21.046;2022-09-09T15:42:45;15.90;99.90
11091;DHT22;5599;52.210;21.046;2022-09-09T15:45:15;15.90;99.90
11091;DHT22;5599;52.210;21.046;2022-09-09T15:47:44;15.70;99.90
11091;DHT22;5599;52.210;21.046;2022-09-09T15:50:17;15.80;99.90
11091;DHT22;5599;52.210;21.046;2022-09-09T15:52:48;15.90;99.90
11091;DHT22;5599;52.210;21.046;2022-09-09T15:55:17;15.80;99.90
11091;DHT22;5599;52.210;21.046;2022-09-09T15:57:48;15.70;99.90
11091;DHT22;5599;52.210;21.046;2022-09-09T16:00:18;15.60;99.90
11091;DHT22;5599;52.210;21.046;2022-09-09T16:02:48;15.60;99.90
11091;DHT22;5599;52.210;21.046;2022-09-09T16:05:17;15.60;99.90
11091;DHT22;5599;52.210;21.046;2022-09-09T16:07:48;15.60;99.90
11091;DHT22;5599;52.210;21.046;2022-09-09T16:10:18;15.60;99.90
11091;DHT22;5599;52.210;21.046;2022-09-09T16:12:48;15.60;99.90
11091;DHT22;5599;52.210;21.046;2022-09-09T16:15:19;15.60;99.90
11091;DHT22;5599;52.210;21.046;2022-09-09T16:17:53;15.60;99.90
11091;DHT22;5599;52.210;21.046;2022-09-09T16:20:23;15.70;99.90
11091;DHT22;5599;52.210;21.046;2022-09-09T16:22:54;15.70;99.90
11091;DHT22;5599;52.210;21.046;2022-09-09T16:25:25;15.70;99.90